createdAt,value
2022-11-06T00:00:41.693Z,50.885590
2022-11-06T00:01:41.762Z,50.885689
2022-11-06T00:02:41.755Z,50.885586
2022-11-06T00:03:41.683Z,50.885525
2022-11-06T00:04:41.721Z,50.885571
2022-11-06T00:05:41.736Z,50.885654
2022-11-06T00:06:41.667Z,50.885601
2022-11-06T00:07:41.642Z,50.885590
2022-11-06T00:08:41.692Z,50.885548
2022-11-06T00:09:41.643Z,50.885582
2022-11-06T00:10:41.608Z,50.885605
2022-11-06T00:11:41.621Z,50.885590
2022-11-06T00:12:41.607Z,50.885471
2022-11-06T00:13:41.618Z,50.885639
2022-11-06T00:14:41.590Z,50.885632
2022-11-06T00:15:41.636Z,50.885593
2022-11-06T00:16:41.580Z,50.885620
2022-11-06T00:17:41.580Z,50.885612
2022-11-06T00:18:41.572Z,50.885551
2022-11-06T00:19:41.572Z,50.885548
2022-11-06T00:20:41.576Z,50.885555
2022-11-06T00:21:41.551Z,50.885498
2022-11-06T00:22:41.544Z,50.885502
2022-11-06T00:23:41.527Z,50.885483
2022-11-06T00:24:41.647Z,50.885498
2022-11-06T00:25:41.518Z,50.885639
2022-11-06T00:26:41.511Z,50.885601
2022-11-06T00:27:41.529Z,50.885582
2022-11-06T00:28:41.502Z,50.885571
2022-11-06T00:29:41.494Z,50.885521
2022-11-06T00:30:41.599Z,50.885586
2022-11-06T00:31:41.501Z,50.885532
2022-11-06T00:32:41.493Z,50.885555
2022-11-06T00:33:41.475Z,50.885628
2022-11-06T00:34:41.457Z,50.885311
2022-11-06T00:35:41.475Z,50.885395
2022-11-06T00:36:41.994Z,50.885410
2022-11-06T00:37:41.441Z,50.885437
2022-11-06T00:38:41.453Z,50.885464
2022-11-06T00:39:41.447Z,50.885559
2022-11-06T00:40:41.439Z,50.885612
2022-11-06T00:41:41.522Z,50.885628
2022-11-06T00:42:41.421Z,50.885674
2022-11-06T00:43:41.434Z,50.885681
2022-11-06T00:44:41.397Z,50.885704
2022-11-06T00:45:41.396Z,50.885674
2022-11-06T00:46:41.410Z,50.885639
2022-11-06T00:47:41.380Z,50.885620
2022-11-06T00:48:41.383Z,50.885586
2022-11-06T00:49:41.375Z,50.885475
2022-11-06T00:50:41.389Z,50.885517
2022-11-06T00:51:41.386Z,50.885536
2022-11-06T00:52:41.396Z,50.885647
2022-11-06T00:53:41.344Z,50.885616
2022-11-06T00:54:41.332Z,50.885635
2022-11-06T00:55:41.351Z,50.885666
2022-11-06T00:56:41.335Z,50.885674
2022-11-06T00:57:41.349Z,50.885704
2022-11-06T00:58:41.327Z,50.885651
2022-11-06T00:59:41.496Z,50.885674
2022-11-06T01:00:41.307Z,50.885296
2022-11-06T01:01:41.467Z,50.885494
2022-11-06T01:02:41.494Z,50.885506
2022-11-06T01:03:41.324Z,50.885551
2022-11-06T01:04:41.283Z,50.885612
2022-11-06T01:05:41.292Z,50.885571
2022-11-06T01:06:41.265Z,50.885609
2022-11-06T01:07:41.266Z,50.885628
2022-11-06T01:08:41.313Z,50.885715
2022-11-06T01:09:41.269Z,50.885681
2022-11-06T01:10:42.231Z,50.885647
2022-11-06T01:12:10.908Z,50.885635
2022-11-06T01:12:43.221Z,50.885681
2022-11-06T01:13:41.224Z,50.885666
2022-11-06T01:14:41.319Z,50.885529
2022-11-06T01:15:41.220Z,50.885548
2022-11-06T01:16:41.196Z,50.885681
2022-11-06T01:17:41.202Z,50.885548
2022-11-06T01:18:41.216Z,50.885643
2022-11-06T01:19:41.213Z,50.885540
2022-11-06T01:20:41.190Z,50.885658
2022-11-06T01:21:41.199Z,50.885612
2022-11-06T01:22:41.168Z,50.885693
2022-11-06T01:23:41.179Z,50.885742
2022-11-06T01:24:41.209Z,50.885567
2022-11-06T01:25:41.162Z,50.885647
2022-11-06T01:26:58.507Z,50.885689
2022-11-06T01:27:42.145Z,50.885559
2022-11-06T01:28:41.120Z,50.885536
2022-11-06T01:29:41.148Z,50.885525
2022-11-06T01:30:41.152Z,50.885521
2022-11-06T01:31:41.120Z,50.885628
2022-11-06T01:32:41.133Z,50.885807
2022-11-06T01:33:41.130Z,50.885746
2022-11-06T01:34:41.100Z,50.885746
2022-11-06T01:35:41.087Z,50.885746
2022-11-06T01:36:41.113Z,50.885693
2022-11-06T01:37:41.083Z,50.885532
2022-11-06T01:38:41.100Z,50.885612
2022-11-06T01:39:41.068Z,50.885601
2022-11-06T01:40:41.060Z,50.885521
2022-11-06T01:41:41.168Z,50.885578
2022-11-06T01:42:41.055Z,50.885578
2022-11-06T01:43:41.142Z,50.885540
2022-11-06T01:44:41.041Z,50.885502
2022-11-06T01:45:41.034Z,50.885578
2022-11-06T01:46:41.034Z,50.885498
2022-11-06T01:47:41.160Z,50.885616
2022-11-06T01:48:41.019Z,50.885624
2022-11-06T01:49:40.996Z,50.885681
2022-11-06T01:50:41.076Z,50.885590
2022-11-06T01:51:41.009Z,50.885590
2022-11-06T01:52:41.010Z,50.885590
2022-11-06T01:53:40.972Z,50.885601
2022-11-06T01:54:40.992Z,50.885597
2022-11-06T01:55:40.967Z,50.885681
2022-11-06T01:56:40.968Z,50.885578
2022-11-06T01:57:40.945Z,50.885555
2022-11-06T01:58:41.068Z,50.885578
2022-11-06T01:59:40.956Z,50.885662
2022-11-06T02:00:40.941Z,50.885723
2022-11-06T02:01:41.033Z,50.885597
2022-11-06T02:02:41.059Z,50.885616
2022-11-06T02:03:40.951Z,50.885540
2022-11-06T02:04:40.907Z,50.885582
2022-11-06T02:05:40.912Z,50.885540
2022-11-06T02:06:40.905Z,50.885635
2022-11-06T02:07:40.869Z,50.885582
2022-11-06T02:08:40.900Z,50.885593
2022-11-06T02:09:40.905Z,50.885639
2022-11-06T02:10:40.883Z,50.885574
2022-11-06T02:11:40.872Z,50.885521
2022-11-06T02:12:40.883Z,50.885574
2022-11-06T02:13:40.858Z,50.885620
2022-11-06T02:14:40.895Z,50.885693
2022-11-06T02:15:40.841Z,50.885616
2022-11-06T02:16:40.830Z,50.885597
2022-11-06T02:17:40.816Z,50.885479
2022-11-06T02:18:40.840Z,50.885567
2022-11-06T02:19:40.822Z,50.885540
2022-11-06T02:20:40.837Z,50.885612
2022-11-06T02:21:40.818Z,50.885704
2022-11-06T02:22:40.819Z,50.885334
2022-11-06T02:23:40.786Z,50.885399
2022-11-06T02:24:40.785Z,50.885269
2022-11-06T02:25:40.800Z,50.885311
2022-11-06T02:26:40.772Z,50.885445
2022-11-06T02:27:40.775Z,50.885704
2022-11-06T02:28:40.762Z,50.885605
2022-11-06T02:29:40.748Z,50.885609
2022-11-06T02:30:40.755Z,50.885410
2022-11-06T02:31:40.764Z,50.885410
2022-11-06T02:32:41.752Z,50.885422
2022-11-06T02:33:40.745Z,50.885349
2022-11-06T02:34:40.716Z,50.885509
2022-11-06T02:35:40.708Z,50.885559
2022-11-06T02:36:40.811Z,50.885571
2022-11-06T02:37:40.719Z,50.885616
2022-11-06T02:38:40.686Z,50.885651
2022-11-06T02:39:40.689Z,50.885750
2022-11-06T02:40:40.702Z,50.885658
2022-11-06T02:41:40.680Z,50.885605
2022-11-06T02:42:40.693Z,50.885677
2022-11-06T02:43:40.667Z,50.885666
2022-11-06T02:44:41.645Z,50.885651
2022-11-06T02:45:40.641Z,50.885628
2022-11-06T02:46:40.649Z,50.885643
2022-11-06T02:47:40.755Z,50.885574
2022-11-06T02:48:40.625Z,50.885586
2022-11-06T02:49:40.604Z,50.885479
2022-11-06T02:50:40.610Z,50.885551
2022-11-06T02:51:40.624Z,50.885521
2022-11-06T02:52:40.609Z,50.885563
2022-11-06T02:53:40.704Z,50.885448
2022-11-06T02:54:40.586Z,50.885544
2022-11-06T02:55:40.593Z,50.885586
2022-11-06T02:56:40.588Z,50.885609
2022-11-06T02:57:40.566Z,50.885582
2022-11-06T02:58:43.606Z,50.885612
2022-11-06T02:59:41.573Z,50.885593
2022-11-06T03:00:40.559Z,50.885399
2022-11-06T03:01:40.653Z,50.885406
2022-11-06T03:02:40.849Z,50.885487
2022-11-06T03:03:40.528Z,50.885548
2022-11-06T03:04:40.552Z,50.885635
2022-11-06T03:05:40.512Z,50.885529
2022-11-06T03:06:40.515Z,50.885498
2022-11-06T03:07:40.510Z,50.885555
2022-11-06T03:08:40.512Z,50.885555
2022-11-06T03:09:40.559Z,50.885555
2022-11-06T03:10:40.484Z,50.885540
2022-11-06T03:11:40.475Z,50.885540
2022-11-06T03:12:41.474Z,50.885517
2022-11-06T03:13:40.462Z,50.885487
2022-11-06T03:14:40.459Z,50.885651
2022-11-06T03:15:40.484Z,50.885590
2022-11-06T03:16:40.433Z,50.885555
2022-11-06T03:17:40.439Z,50.885567
2022-11-06T03:18:40.431Z,50.885567
2022-11-06T03:19:40.423Z,50.885593
2022-11-06T03:20:40.450Z,50.885563
2022-11-06T03:21:40.429Z,50.885571
2022-11-06T03:22:40.419Z,50.885551
2022-11-06T03:23:40.402Z,50.885597
2022-11-06T03:24:40.411Z,50.885727
2022-11-06T03:25:40.397Z,50.885849
2022-11-06T03:26:40.404Z,50.885834
2022-11-06T03:27:40.378Z,50.885811
2022-11-06T03:28:40.379Z,50.885643
2022-11-06T03:29:40.349Z,50.885502
2022-11-06T03:30:40.347Z,50.885422
2022-11-06T03:31:40.384Z,50.885429
2022-11-06T03:32:40.338Z,50.885513
2022-11-06T03:33:40.341Z,50.885620
2022-11-06T03:34:40.325Z,50.885624
2022-11-06T03:35:40.318Z,50.885483
2022-11-06T03:36:40.311Z,50.885479
2022-11-06T03:37:40.336Z,50.885544
2022-11-06T03:38:42.455Z,50.885475
2022-11-06T03:39:41.296Z,50.885384
2022-11-06T03:40:40.299Z,50.885464
2022-11-06T03:41:40.297Z,50.885593
2022-11-06T03:42:40.307Z,50.885609
2022-11-06T03:43:40.270Z,50.885574
2022-11-06T03:44:40.268Z,50.885529
2022-11-06T03:45:40.249Z,50.885422
2022-11-06T03:46:40.257Z,50.885468
2022-11-06T03:47:40.242Z,50.885475
2022-11-06T03:48:40.257Z,50.885525
2022-11-06T03:49:40.222Z,50.885532
2022-11-06T03:50:40.241Z,50.885551
2022-11-06T03:51:40.221Z,50.885387
2022-11-06T03:52:42.519Z,50.885563
2022-11-06T03:53:40.246Z,50.885612
2022-11-06T03:54:40.210Z,50.885521
2022-11-06T03:55:40.213Z,50.885532
2022-11-06T03:56:40.200Z,50.885506
2022-11-06T03:57:40.187Z,50.885464
2022-11-06T03:58:40.233Z,50.885349
2022-11-06T03:59:40.188Z,50.885338
2022-11-06T04:00:40.155Z,50.885406
2022-11-06T04:01:40.303Z,50.885410
2022-11-06T04:02:40.302Z,50.885509
2022-11-06T04:03:40.146Z,50.885597
2022-11-06T04:04:40.166Z,50.885605
2022-11-06T04:05:40.126Z,50.885571
2022-11-06T04:06:40.121Z,50.885509
2022-11-06T04:07:40.121Z,50.885559
2022-11-06T04:08:40.118Z,50.885487
2022-11-06T04:09:40.115Z,50.885525
2022-11-06T04:10:40.116Z,50.885521
2022-11-06T04:11:40.105Z,50.885578
2022-11-06T04:12:40.088Z,50.885498
2022-11-06T04:13:40.113Z,50.885571
2022-11-06T04:14:40.081Z,50.885487
2022-11-06T04:15:40.090Z,50.885506
2022-11-06T04:16:40.058Z,50.885536
2022-11-06T04:17:40.057Z,50.885494
2022-11-06T04:18:40.060Z,50.885448
2022-11-06T04:19:40.045Z,50.885529
2022-11-06T04:20:40.090Z,50.885544
2022-11-06T04:21:40.088Z,50.885563
2022-11-06T04:22:40.058Z,50.885609
2022-11-06T04:23:40.021Z,50.885624
2022-11-06T04:24:40.010Z,50.885616
2022-11-06T04:25:39.992Z,50.885418
2022-11-06T04:26:40.025Z,50.885330
2022-11-06T04:27:39.990Z,50.885323
2022-11-06T04:28:39.985Z,50.885403
2022-11-06T04:29:39.978Z,50.885456
2022-11-06T04:30:39.957Z,50.885525
2022-11-06T04:31:39.975Z,50.885555
2022-11-06T04:32:40.068Z,50.885681
2022-11-06T04:33:39.934Z,50.885590
2022-11-06T04:34:39.950Z,50.885593
2022-11-06T04:35:39.952Z,50.885590
2022-11-06T04:36:39.929Z,50.885521
2022-11-06T04:37:39.943Z,50.885578
2022-11-06T04:38:39.921Z,50.885494
2022-11-06T04:39:39.901Z,50.885666
2022-11-06T04:40:39.889Z,50.885494
2022-11-06T04:41:39.887Z,50.885548
2022-11-06T04:42:39.898Z,50.885578
2022-11-06T04:43:39.989Z,50.885490
2022-11-06T04:44:39.852Z,50.885551
2022-11-06T04:45:39.877Z,50.885612
2022-11-06T04:46:39.857Z,50.885597
2022-11-06T04:47:39.850Z,50.885529
2022-11-06T04:48:39.941Z,50.885612
2022-11-06T04:49:39.863Z,50.885620
2022-11-06T04:50:39.863Z,50.885578
2022-11-06T04:51:39.841Z,50.885643
2022-11-06T04:52:39.811Z,50.885479
2022-11-06T04:53:39.801Z,50.885521
2022-11-06T04:54:39.848Z,50.885624
2022-11-06T04:55:39.805Z,50.885654
2022-11-06T04:56:44.702Z,50.885639
2022-11-06T04:57:39.797Z,50.885643
2022-11-06T04:58:39.786Z,50.885586
2022-11-06T04:59:39.797Z,50.885624
2022-11-06T05:00:39.776Z,50.885616
2022-11-06T05:01:39.962Z,50.885525
2022-11-06T05:02:39.761Z,50.885586
2022-11-06T05:03:39.743Z,50.885647
2022-11-06T05:04:39.756Z,50.885593
2022-11-06T05:05:39.769Z,50.885403
2022-11-06T05:06:39.747Z,50.885391
2022-11-06T05:07:39.729Z,50.885605
2022-11-06T05:08:39.711Z,50.885643
2022-11-06T05:09:39.706Z,50.885513
2022-11-06T05:10:39.713Z,50.885498
2022-11-06T05:11:39.699Z,50.885571
2022-11-06T05:12:39.694Z,50.885544
2022-11-06T05:13:39.690Z,50.885426
2022-11-06T05:14:39.682Z,50.885376
2022-11-06T05:15:39.671Z,50.885548
2022-11-06T05:16:39.785Z,50.885498
2022-11-06T05:17:39.668Z,50.885448
2022-11-06T05:18:39.648Z,50.885429
2022-11-06T05:19:39.665Z,50.885616
2022-11-06T05:20:39.629Z,50.885574
2022-11-06T05:21:39.637Z,50.885506
2022-11-06T05:22:39.617Z,50.885559
2022-11-06T05:23:39.616Z,50.885490
2022-11-06T05:24:39.607Z,50.885460
2022-11-06T05:25:39.609Z,50.885479
2022-11-06T05:26:39.589Z,50.885536
2022-11-06T05:27:39.675Z,50.885559
2022-11-06T05:28:39.577Z,50.885681
2022-11-06T05:29:39.591Z,50.885509
2022-11-06T05:30:39.589Z,50.885628
2022-11-06T05:31:39.644Z,50.885624
2022-11-06T05:32:40.591Z,50.885643
2022-11-06T05:33:39.537Z,50.885628
2022-11-06T05:34:39.536Z,50.885632
2022-11-06T05:35:39.542Z,50.885632
2022-11-06T05:36:39.532Z,50.885632
2022-11-06T05:37:39.555Z,50.885689
2022-11-06T05:38:39.580Z,50.885677
2022-11-06T05:39:41.999Z,50.885647
2022-11-06T05:40:40.499Z,50.885593
2022-11-06T05:41:39.504Z,50.885513
2022-11-06T05:42:39.494Z,50.885521
2022-11-06T05:43:39.589Z,50.885624
2022-11-06T05:44:39.479Z,50.885639
2022-11-06T05:45:39.463Z,50.885605
2022-11-06T05:46:54.850Z,50.885620
2022-11-06T05:47:41.469Z,50.885727
2022-11-06T05:48:39.464Z,50.885605
2022-11-06T05:49:39.483Z,50.885593
2022-11-06T05:50:39.433Z,50.885555
2022-11-06T05:51:39.445Z,50.885471
2022-11-06T05:52:39.430Z,50.885433
2022-11-06T05:53:39.412Z,50.885410
2022-11-06T05:54:39.529Z,50.885555
2022-11-06T05:55:39.413Z,50.885395
2022-11-06T05:56:39.391Z,50.885326
2022-11-06T05:57:39.651Z,50.885345
2022-11-06T05:58:40.160Z,50.885284
2022-11-06T05:59:39.379Z,50.885422
2022-11-06T06:00:39.478Z,50.885387
2022-11-06T06:01:39.536Z,50.885540
2022-11-06T06:02:39.544Z,50.885490
2022-11-06T06:03:40.171Z,50.885502
2022-11-06T06:04:39.351Z,50.885666
2022-11-06T06:05:39.373Z,50.885586
2022-11-06T06:06:39.362Z,50.885658
2022-11-06T06:07:39.317Z,50.885681
2022-11-06T06:08:39.327Z,50.885593
2022-11-06T06:09:39.328Z,50.885487
2022-11-06T06:10:39.313Z,50.885456
2022-11-06T06:11:39.342Z,50.885521
2022-11-06T06:12:39.314Z,50.885544
2022-11-06T06:13:39.280Z,50.885502
2022-11-06T06:14:39.295Z,50.885620
2022-11-06T06:15:39.293Z,50.885704
2022-11-06T06:16:39.398Z,50.885563
2022-11-06T06:17:39.258Z,50.885715
2022-11-06T06:18:39.252Z,50.885738
2022-11-06T06:19:39.251Z,50.885548
2022-11-06T06:20:39.240Z,50.885662
2022-11-06T06:21:39.241Z,50.885674
2022-11-06T06:22:39.364Z,50.885487
2022-11-06T06:23:39.225Z,50.885670
2022-11-06T06:24:39.265Z,50.885433
2022-11-06T06:25:39.204Z,50.885159
2022-11-06T06:26:39.215Z,50.885376
2022-11-06T06:27:39.223Z,50.885506
2022-11-06T06:28:39.202Z,50.885494
2022-11-06T06:29:39.193Z,50.885536
2022-11-06T06:30:39.276Z,50.885521
2022-11-06T06:31:39.168Z,50.885708
2022-11-06T06:32:39.182Z,50.885563
2022-11-06T06:33:39.237Z,50.885651
2022-11-06T06:34:39.159Z,50.885674
2022-11-06T06:35:39.138Z,50.885628
2022-11-06T06:36:39.125Z,50.885628
2022-11-06T06:37:39.133Z,50.885742
2022-11-06T06:38:39.167Z,50.885502
2022-11-06T06:39:39.132Z,50.885487
2022-11-06T06:40:39.113Z,50.885403
2022-11-06T06:41:39.099Z,50.885498
2022-11-06T06:42:39.095Z,50.885548
2022-11-06T06:43:39.105Z,50.885544
2022-11-06T06:44:39.078Z,50.885880
2022-11-06T06:45:39.075Z,50.885681
2022-11-06T06:46:39.086Z,50.885628
2022-11-06T06:47:39.085Z,50.885757
2022-11-06T06:48:39.061Z,50.885151
2022-11-06T06:49:39.092Z,50.885471
2022-11-06T06:50:39.057Z,50.885406
2022-11-06T06:51:39.078Z,50.885460
2022-11-06T06:52:39.039Z,50.885567
2022-11-06T06:53:39.039Z,50.885506
2022-11-06T06:54:39.103Z,50.885578
2022-11-06T06:55:39.025Z,50.885590
2022-11-06T06:56:39.013Z,50.885509
2022-11-06T06:57:39.001Z,50.885681
2022-11-06T06:58:38.995Z,50.885612
2022-11-06T06:59:39.006Z,50.885639
2022-11-06T07:00:39.131Z,50.885578
2022-11-06T07:01:39.094Z,50.885666
2022-11-06T07:02:38.979Z,50.885639
2022-11-06T07:03:38.965Z,50.885597
2022-11-06T07:04:38.957Z,50.885536
2022-11-06T07:05:39.004Z,50.885807
2022-11-06T07:06:38.952Z,50.885658
2022-11-06T07:07:38.945Z,50.885616
2022-11-06T07:08:38.965Z,50.885601
2022-11-06T07:09:39.096Z,50.885563
2022-11-06T07:10:38.935Z,50.885578
2022-11-06T07:11:39.045Z,50.885571
2022-11-06T07:12:38.921Z,50.885582
2022-11-06T07:13:38.926Z,50.885483
2022-11-06T07:14:38.916Z,50.885567
2022-11-06T07:15:38.914Z,50.885525
2022-11-06T07:16:38.927Z,50.885555
2022-11-06T07:17:38.882Z,50.885635
2022-11-06T07:18:38.891Z,50.885586
2022-11-06T07:20:11.620Z,50.885544
2022-11-06T07:20:38.858Z,50.885502
2022-11-06T07:21:38.860Z,50.885571
2022-11-06T07:22:38.892Z,50.885601
2022-11-06T07:23:38.871Z,50.885468
2022-11-06T07:24:38.848Z,50.885521
2022-11-06T07:25:38.847Z,50.885540
2022-11-06T07:26:38.836Z,50.885567
2022-11-06T07:27:38.851Z,50.885452
2022-11-06T07:28:38.808Z,50.885349
2022-11-06T07:29:38.801Z,50.885372
2022-11-06T07:30:38.807Z,50.885498
2022-11-06T07:31:38.816Z,50.885586
2022-11-06T07:32:38.779Z,50.885513
2022-11-06T07:33:38.808Z,50.885460
2022-11-06T07:34:38.782Z,50.885426
2022-11-06T07:35:38.784Z,50.885262
2022-11-06T07:36:38.773Z,50.885269
2022-11-06T07:37:38.769Z,50.885387
2022-11-06T07:38:38.855Z,50.885414
2022-11-06T07:39:38.743Z,50.885498
2022-11-06T07:40:38.756Z,50.885517
2022-11-06T07:41:38.738Z,50.885605
2022-11-06T07:42:43.265Z,50.885593
2022-11-06T07:43:41.166Z,50.885262
2022-11-06T07:44:38.734Z,50.885387
2022-11-06T07:45:38.708Z,50.885029
2022-11-06T07:46:38.706Z,50.885315
2022-11-06T07:47:38.715Z,50.885414
2022-11-06T07:48:38.685Z,50.885265
2022-11-06T07:49:39.121Z,50.885365
2022-11-06T07:50:38.682Z,50.885494
2022-11-06T07:51:38.668Z,50.885590
2022-11-06T07:52:38.650Z,50.885502
2022-11-06T07:53:38.658Z,50.885311
2022-11-06T07:54:38.773Z,50.885345
2022-11-06T07:55:42.228Z,50.885380
2022-11-06T07:56:39.633Z,50.885368
2022-11-06T07:57:38.624Z,50.885468
2022-11-06T07:58:38.633Z,50.885536
2022-11-06T07:59:38.655Z,50.885456
2022-11-06T08:00:39.148Z,50.885525
2022-11-06T08:01:38.733Z,50.885517
2022-11-06T08:02:38.648Z,50.885555
2022-11-06T08:03:38.604Z,50.885605
2022-11-06T08:04:38.584Z,50.885647
2022-11-06T08:05:38.594Z,50.885571
2022-11-06T08:06:38.592Z,50.885582
2022-11-06T08:07:38.587Z,50.885479
2022-11-06T08:08:38.578Z,50.885479
2022-11-06T08:09:38.557Z,50.885479
2022-11-06T08:10:38.564Z,50.885551
2022-11-06T08:11:38.682Z,50.885578
2022-11-06T08:12:38.538Z,50.885517
2022-11-06T08:13:38.548Z,50.885555
2022-11-06T08:14:41.405Z,50.885559
2022-11-06T08:15:40.066Z,50.885483
2022-11-06T08:16:38.540Z,50.885601
2022-11-06T08:17:38.510Z,50.885670
2022-11-06T08:18:38.497Z,50.885605
2022-11-06T08:19:38.511Z,50.885540
2022-11-06T08:20:38.494Z,50.885494
2022-11-06T08:21:38.495Z,50.885517
2022-11-06T08:22:38.598Z,50.885490
2022-11-06T08:23:38.478Z,50.885509
2022-11-06T08:24:38.486Z,50.885483
2022-11-06T08:25:38.478Z,50.885426
2022-11-06T08:26:38.449Z,50.885475
2022-11-06T08:27:38.578Z,50.885498
2022-11-06T08:28:38.446Z,50.885548
2022-11-06T08:29:41.560Z,50.885513
2022-11-06T08:30:40.147Z,50.885406
2022-11-06T08:31:38.427Z,50.885529
2022-11-06T08:32:38.438Z,50.885574
2022-11-06T08:33:38.504Z,50.885529
2022-11-06T08:34:39.427Z,50.885544
2022-11-06T08:35:38.417Z,50.885494
2022-11-06T08:36:38.409Z,50.885498
2022-11-06T08:37:38.398Z,50.885380
2022-11-06T08:38:38.526Z,50.885372
2022-11-06T08:39:38.476Z,50.885456
2022-11-06T08:40:38.382Z,50.885387
2022-11-06T08:41:38.383Z,50.885445
2022-11-06T08:42:38.372Z,50.885487
2022-11-06T08:43:38.370Z,50.885445
2022-11-06T08:44:38.473Z,50.885551
2022-11-06T08:45:38.357Z,50.885601
2022-11-06T08:46:38.371Z,50.885509
2022-11-06T08:47:38.359Z,50.885437
2022-11-06T08:48:38.361Z,50.885620
2022-11-06T08:49:38.387Z,50.885643
2022-11-06T08:50:38.346Z,50.885571
2022-11-06T08:51:38.335Z,50.885490
2022-11-06T08:52:38.356Z,50.885452
2022-11-06T08:53:38.412Z,50.885643
2022-11-06T08:54:38.335Z,50.885632
2022-11-06T08:55:38.430Z,50.885578
2022-11-06T08:56:38.309Z,50.885536
2022-11-06T08:57:38.319Z,50.885391
2022-11-06T08:58:38.294Z,50.885303
2022-11-06T08:59:38.301Z,50.885307
2022-11-06T09:00:38.502Z,50.885464
2022-11-06T09:01:38.463Z,50.885551
2022-11-06T09:02:38.305Z,50.885597
2022-11-06T09:03:38.259Z,50.885654
2022-11-06T09:04:41.306Z,50.885826
2022-11-06T09:05:39.276Z,50.886005
2022-11-06T09:06:38.259Z,50.886047
2022-11-06T09:07:38.258Z,50.885880
2022-11-06T09:08:38.251Z,50.885708
2022-11-06T09:09:38.241Z,50.885544
2022-11-06T09:10:38.252Z,50.885540
2022-11-06T09:11:38.252Z,50.885601
2022-11-06T09:12:38.238Z,50.885666
2022-11-06T09:13:38.233Z,50.885715
2022-11-06T09:14:38.219Z,50.885677
2022-11-06T09:15:38.211Z,50.885674
2022-11-06T09:16:38.225Z,50.885639
2022-11-06T09:17:38.252Z,50.885666
2022-11-06T09:18:38.218Z,50.885670
2022-11-06T09:19:38.177Z,50.885578
2022-11-06T09:20:38.587Z,50.885605
2022-11-06T09:21:38.174Z,50.885529
2022-11-06T09:22:38.289Z,50.885361
2022-11-06T09:23:38.200Z,50.885456
2022-11-06T09:25:02.108Z,50.885540
2022-11-06T09:25:40.166Z,50.885429
2022-11-06T09:26:38.159Z,50.885548
2022-11-06T09:27:38.238Z,50.885704
2022-11-06T09:28:38.146Z,50.885677
2022-11-06T09:29:38.143Z,50.885612
2022-11-06T09:30:38.140Z,50.885509
2022-11-06T09:31:38.113Z,50.885464
2022-11-06T09:32:38.107Z,50.885502
2022-11-06T09:33:38.131Z,50.885490
2022-11-06T09:34:38.106Z,50.885502
2022-11-06T09:35:38.104Z,50.885559
2022-11-06T09:36:38.097Z,50.885559
2022-11-06T09:37:38.097Z,50.885517
2022-11-06T09:38:38.213Z,50.885441
2022-11-06T09:39:38.089Z,50.885452
2022-11-06T09:40:38.068Z,50.885479
2022-11-06T09:41:38.066Z,50.885502
2022-11-06T09:42:38.061Z,50.885490
2022-11-06T09:44:03.676Z,50.885487
2022-11-06T09:44:39.158Z,50.885513
2022-11-06T09:45:38.053Z,50.885509
2022-11-06T09:46:38.047Z,50.885548
2022-11-06T09:47:38.036Z,50.885525
2022-11-06T09:48:38.035Z,50.885521
2022-11-06T09:49:38.045Z,50.885559
2022-11-06T09:50:38.123Z,50.885441
2022-11-06T09:51:38.001Z,50.885475
2022-11-06T09:52:38.009Z,50.885460
2022-11-06T09:53:37.994Z,50.885490
2022-11-06T09:54:37.990Z,50.885487
2022-11-06T09:55:38.016Z,50.885548
2022-11-06T09:56:37.984Z,50.885544
2022-11-06T09:57:37.990Z,50.885544
2022-11-06T09:58:37.972Z,50.885578
2022-11-06T09:59:37.966Z,50.885490
2022-11-06T10:00:37.969Z,50.885513
2022-11-06T10:01:38.109Z,50.885498
2022-11-06T10:02:38.031Z,50.885490
2022-11-06T10:03:37.956Z,50.885399
2022-11-06T10:04:37.945Z,50.885452
2022-11-06T10:05:37.941Z,50.885593
2022-11-06T10:06:37.984Z,50.885597
2022-11-06T10:07:37.908Z,50.885601
2022-11-06T10:08:37.965Z,50.885536
2022-11-06T10:09:38.175Z,50.885582
2022-11-06T10:10:37.913Z,50.885567
2022-11-06T10:11:37.904Z,50.885567
2022-11-06T10:12:38.031Z,50.885609
2022-11-06T10:13:37.922Z,50.885590
2022-11-06T10:14:37.878Z,50.885574
2022-11-06T10:15:37.893Z,50.885616
2022-11-06T10:16:37.869Z,50.885578
2022-11-06T10:17:37.920Z,50.885540
2022-11-06T10:18:37.859Z,50.885658
2022-11-06T10:19:37.849Z,50.885643
2022-11-06T10:20:37.850Z,50.885635
2022-11-06T10:21:37.844Z,50.885506
2022-11-06T10:22:37.852Z,50.885483
2022-11-06T10:23:37.943Z,50.885399
2022-11-06T10:24:37.847Z,50.885384
2022-11-06T10:25:37.823Z,50.885399
2022-11-06T10:26:37.830Z,50.885441
2022-11-06T10:27:37.807Z,50.885452
2022-11-06T10:28:37.947Z,50.885498
2022-11-06T10:29:37.805Z,50.885567
2022-11-06T10:30:37.798Z,50.885559
2022-11-06T10:31:37.853Z,50.885551
2022-11-06T10:32:37.786Z,50.885525
2022-11-06T10:33:37.800Z,50.885479
2022-11-06T10:34:37.789Z,50.885490
2022-11-06T10:35:37.788Z,50.885571
2022-11-06T10:36:37.762Z,50.885426
2022-11-06T10:37:37.749Z,50.885567
2022-11-06T10:38:37.758Z,50.885597
2022-11-06T10:39:37.852Z,50.885651
2022-11-06T10:40:37.737Z,50.885620
2022-11-06T10:41:37.809Z,50.885494
2022-11-06T10:42:38.547Z,50.885540
2022-11-06T10:43:38.716Z,50.885456
2022-11-06T10:44:37.768Z,50.885452
2022-11-06T10:45:37.775Z,50.885185
2022-11-06T10:46:37.728Z,50.885586
2022-11-06T10:47:37.683Z,50.885460
2022-11-06T10:48:41.365Z,50.885418
2022-11-06T10:49:37.705Z,50.885391
2022-11-06T10:50:38.674Z,50.885338
2022-11-06T10:51:37.660Z,50.885387
2022-11-06T10:52:37.683Z,50.885471
2022-11-06T10:53:37.678Z,50.885567
2022-11-06T10:54:37.671Z,50.885502
2022-11-06T10:55:37.678Z,50.885551
2022-11-06T10:56:37.812Z,50.885441
2022-11-06T10:57:37.658Z,50.885456
2022-11-06T10:58:37.636Z,50.885406
2022-11-06T10:59:37.663Z,50.885487
2022-11-06T11:00:37.722Z,50.885517
2022-11-06T11:01:37.936Z,50.885494
2022-11-06T11:02:37.713Z,50.885487
2022-11-06T11:03:37.601Z,50.885490
2022-11-06T11:04:37.625Z,50.885586
2022-11-06T11:05:37.598Z,50.885479
2022-11-06T11:06:37.610Z,50.885414
2022-11-06T11:07:37.605Z,50.885143
2022-11-06T11:08:37.570Z,50.884968
2022-11-06T11:09:37.592Z,50.885616
2022-11-06T11:10:37.561Z,50.885479
2022-11-06T11:11:37.554Z,50.885738
2022-11-06T11:12:37.685Z,50.885620
2022-11-06T11:13:37.581Z,50.885612
2022-11-06T11:14:37.546Z,50.885883
2022-11-06T11:15:37.531Z,50.885773
2022-11-06T11:16:37.558Z,50.885525
2022-11-06T11:17:37.526Z,50.885368
2022-11-06T11:18:37.561Z,50.885101
2022-11-06T11:19:37.526Z,50.885437
2022-11-06T11:20:37.521Z,50.885429
2022-11-06T11:21:37.537Z,50.885338
2022-11-06T11:22:37.544Z,50.885399
2022-11-06T11:23:37.613Z,50.885509
2022-11-06T11:24:37.509Z,50.885357